Time;durP1;ratioP1;P1;durP2;ratioP2;P2;SDS_P1;SDS_P2;PMS_P1;PMS_P2;Temp;Humidity;BMP_temperature;BMP_pressure;BME280_temperature;BME280_humidity;BME280_pressure;Samples;Min_cycle;Max_cycle;Signal;HPM_P1;HPM_P2
2023/06/21 00:00:35;;;;;;;11.32;9.25;;;24.20;95.80;;;;;;5035170;28;20463;-65
2023/06/21 00:03:01;;;;;;;10.10;9.13;;;24.20;95.90;;;;;;5034927;28;20079;-65
2023/06/21 00:05:27;;;;;;;9.48;8.68;;;24.30;95.90;;;;;;5034682;28;20021;-65
2023/06/21 00:07:54;;;;;;;10.00;9.00;;;24.20;95.90;;;;;;5035055;28;20021;-65
2023/06/21 00:10:23;;;;;;;11.13;9.63;;;24.10;95.90;;;;;;5034565;28;20029;-65
2023/06/21 00:12:52;;;;;;;9.98;8.98;;;24.10;96.00;;;;;;5034879;28;20025;-65
2023/06/21 00:15:18;;;;;;;10.35;9.38;;;24.20;96.10;;;;;;5034675;28;20026;-65
2023/06/21 00:17:44;;;;;;;12.95;9.60;;;24.10;96.10;;;;;;5034739;28;20026;-65
2023/06/21 00:20:10;;;;;;;10.45;9.43;;;24.10;96.20;;;;;;5034413;28;20030;-64
2023/06/21 00:22:40;;;;;;;10.55;9.48;;;24.10;96.20;;;;;;5017034;28;20104;-64
2023/06/21 00:25:07;;;;;;;10.23;9.20;;;24.10;96.30;;;;;;5034535;28;20029;-65
2023/06/21 00:27:35;;;;;;;11.20;9.27;;;24.10;96.30;;;;;;5034577;28;20029;-65
2023/06/21 00:30:01;;;;;;;10.18;9.20;;;24.10;96.40;;;;;;5034487;28;20097;-64
2023/06/21 00:32:27;;;;;;;11.15;10.02;;;24.00;96.50;;;;;;5034520;28;20064;-64
2023/06/21 00:34:52;;;;;;;9.88;8.98;;;24.00;96.50;;;;;;5034122;28;20492;-65
2023/06/21 00:37:18;;;;;;;10.00;9.05;;;24.00;96.50;;;;;;5034525;28;20075;-64
2023/06/21 00:39:43;;;;;;;10.93;9.57;;;23.90;96.50;;;;;;5034453;28;20513;-65
2023/06/21 00:42:10;;;;;;;10.50;9.23;;;24.00;96.50;;;;;;5034389;28;20492;-64
2023/06/21 00:44:36;;;;;;;11.70;9.35;;;24.00;96.50;;;;;;5033987;28;20025;-65
2023/06/21 00:47:02;;;;;;;10.93;9.75;;;24.00;96.60;;;;;;5034478;28;20044;-65
2023/06/21 00:49:28;;;;;;;11.38;10.25;;;23.90;96.70;;;;;;5033796;28;20021;-65
2023/06/21 00:51:57;;;;;;;11.77;10.30;;;23.90;96.70;;;;;;5034210;28;20048;-65
2023/06/21 00:54:29;;;;;;;11.07;9.98;;;23.90;96.80;;;;;;5033940;28;20478;-65
2023/06/21 00:56:56;;;;;;;11.95;9.82;;;23.80;96.80;;;;;;5034253;28;20052;-65
2023/06/21 00:59:23;;;;;;;11.95;10.75;;;23.80;96.70;;;;;;5033967;28;20021;-65
2023/06/21 01:01:48;;;;;;;14.10;10.60;;;23.80;96.80;;;;;;5034106;28;20429;-65
2023/06/21 01:04:14;;;;;;;11.63;10.48;;;23.80;96.80;;;;;;5033470;28;20573;-64
2023/06/21 01:06:52;;;;;;;15.65;10.77;;;23.80;96.90;;;;;;5016000;28;20048;-65
2023/06/21 01:09:34;;;;;;;12.00;10.80;;;23.80;96.80;;;;;;5033147;28;20368;-65
2023/06/21 01:12:15;;;;;;;11.35;10.02;;;23.80;97.00;;;;;;5033789;28;20605;-65
2023/06/21 01:14:57;;;;;;;12.85;10.35;;;23.70;97.00;;;;;;5033841;28;20037;-65
2023/06/21 01:17:23;;;;;;;;;;;23.70;97.00;;;;;;5033969;28;20022;-65
2023/06/21 01:19:53;;;;;;;10.70;9.60;;;23.80;96.70;;;;;;5033659;28;19909;-64
2023/06/21 01:22:21;;;;;;;11.88;10.65;;;23.70;97.10;;;;;;5033441;28;20036;-65
2023/06/21 01:25:02;;;;;;;13.25;10.80;;;23.70;97.20;;;;;;5033680;28;20049;-65
2023/06/21 01:27:53;;;;;;;12.68;10.43;;;23.60;97.30;;;;;;5033512;28;20087;-65
2023/06/21 01:30:21;;;;;;;12.07;10.60;;;23.70;97.10;;;;;;5033415;28;20017;-66
2023/06/21 01:32:51;;;;;;;12.27;10.90;;;23.60;97.30;;;;;;5033137;28;20056;-65
2023/06/21 01:35:16;;;;;;;15.10;11.38;;;23.60;97.40;;;;;;5033344;28;20065;-64
2023/06/21 01:37:42;;;;;;;14.57;11.45;;;23.60;97.30;;;;;;5033305;28;20164;-65
2023/06/21 01:40:11;;;;;;;11.88;10.57;;;23.60;97.20;;;;;;5033335;28;20017;-65
2023/06/21 01:42:37;;;;;;;15.23;11.23;;;23.60;97.40;;;;;;5033111;28;20061;-64
2023/06/21 01:45:04;;;;;;;11.82;10.68;;;23.50;97.40;;;;;;5033270;28;20489;-65
2023/06/21 01:47:29;;;;;;;11.02;10.02;;;23.50;97.50;;;;;;5032789;28;20041;-65
2023/06/21 01:49:56;;;;;;;12.90;11.55;;;23.50;97.50;;;;;;5033289;28;20022;-65
2023/06/21 01:52:24;;;;;;;13.68;10.75;;;23.50;97.50;;;;;;5033170;28;20108;-64
2023/06/21 01:54:50;;;;;;;14.07;11.70;;;23.50;97.60;;;;;;5033081;28;20467;-65
2023/06/21 01:57:18;;;;;;;12.60;10.40;;;23.40;97.70;;;;;;5033036;28;20053;-64
2023/06/21 01:59:44;;;;;;;12.25;10.95;;;23.40;97.70;;;;;;5033031;28;20022;-65
2023/06/21 02:02:10;;;;;;;14.68;10.90;;;23.40;97.70;;;;;;5033081;28;20112;-65
2023/06/21 02:04:38;;;;;;;14.38;11.60;;;23.40;97.80;;;;;;5032969;28;20527;-65
2023/06/21 02:07:05;;;;;;;12.63;11.30;;;23.40;97.80;;;;;;5032915;28;20054;-64
2023/06/21 02:09:31;;;;;;;12.45;11.25;;;23.40;97.90;;;;;;5033106;28;20025;-65
2023/06/21 02:11:57;;;;;;;15.18;10.93;;;23.40;98.00;;;;;;5032919;28;20529;-67
2023/06/21 02:14:23;;;;;;;12.65;10.73;;;23.40;98.10;;;;;;5032940;28;20047;-65
2023/06/21 02:16:49;;;;;;;15.57;11.52;;;23.40;98.10;;;;;;5032543;28;20021;-65
2023/06/21 02:19:14;;;;;;;14.50;12.13;;;23.40;98.20;;;;;;5033049;28;20018;-65
2023/06/21 02:21:40;;;;;;;15.00;11.65;;;23.40;98.30;;;;;;5036346;28;20029;-65
2023/06/21 02:24:06;;;;;;;15.55;11.93;;;23.40;98.40;;;;;;5037033;28;20024;-65
2023/06/21 02:26:31;;;;;;;12.57;11.25;;;23.30;98.60;;;;;;5036707;28;20071;-65
2023/06/21 02:28:57;;;;;;;12.82;11.52;;;23.30;98.60;;;;;;5036756;28;20105;-65
2023/06/21 02:31:22;;;;;;;12.23;10.93;;;23.30;98.70;;;;;;5036526;28;20026;-67
2023/06/21 02:33:49;;;;;;;13.20;11.90;;;23.30;98.70;;;;;;5036812;28;20024;-70
2023/06/21 02:36:15;;;;;;;12.48;11.27;;;23.30;98.70;;;;;;5036818;28;20413;-66
2023/06/21 02:38:41;;;;;;;13.23;11.82;;;23.30;98.90;;;;;;5036429;28;20045;-66
2023/06/21 02:41:07;;;;;;;13.55;12.10;;;23.30;98.90;;;;;;5036677;28;20025;-66
2023/06/21 02:43:33;;;;;;;12.95;11.65;;;23.30;99.00;;;;;;5036431;28;20056;-66
2023/06/21 02:46:00;;;;;;;13.85;11.82;;;23.30;99.00;;;;;;5036256;28;20075;-66
2023/06/21 02:48:26;;;;;;;14.15;12.73;;;23.30;99.20;;;;;;5036418;28;20017;-66
2023/06/21 02:50:51;;;;;;;12.68;11.40;;;23.30;99.20;;;;;;5036363;28;20032;-66
2023/06/21 02:53:17;;;;;;;13.77;12.13;;;23.20;99.20;;;;;;5036345;28;20029;-66
2023/06/21 02:55:42;;;;;;;13.60;12.38;;;23.20;99.20;;;;;;5036264;28;20048;-66
2023/06/21 02:58:08;;;;;;;16.35;12.93;;;23.20;99.10;;;;;;5035983;28;20026;-65
2023/06/21 03:00:34;;;;;;;15.18;13.57;;;23.20;99.20;;;;;;5036187;28;20033;-66
2023/06/21 03:03:00;;;;;;;15.63;13.23;;;23.20;99.30;;;;;;5036101;28;20029;-66
2023/06/21 03:05:35;;;;;;;14.13;12.82;;;23.20;99.30;;;;;;5036249;28;20057;-66
2023/06/21 03:08:04;;;;;;;14.40;12.90;;;23.20;99.40;;;;;;5036028;28;20045;-66
2023/06/21 03:10:32;;;;;;;17.38;13.45;;;23.20;99.40;;;;;;5036034;28;20386;-66
2023/06/21 03:12:58;;;;;;;14.48;12.80;;;23.20;99.40;;;;;;5035658;28;20041;-66
2023/06/21 03:15:24;;;;;;;15.68;12.63;;;23.20;99.40;;;;;;5033817;28;20466;-65
2023/06/21 03:17:50;;;;;;;14.10;12.80;;;23.10;99.40;;;;;;5035092;28;20470;-66
2023/06/21 03:20:16;;;;;;;14.98;13.45;;;23.10;99.50;;;;;;5034203;28;20025;-65
2023/06/21 03:22:43;;;;;;;15.30;12.90;;;23.10;99.50;;;;;;5035324;28;20378;-66
2023/06/21 03:25:10;;;;;;;14.25;12.80;;;23.10;99.50;;;;;;5035678;28;20052;-65
2023/06/21 03:27:36;;;;;;;15.15;13.65;;;23.10;99.60;;;;;;5017602;28;20399;-66
2023/06/21 03:30:02;;;;;;;15.68;13.82;;;23.10;99.60;;;;;;5035516;28;20022;-66
2023/06/21 03:32:28;;;;;;;14.40;12.98;;;23.10;99.70;;;;;;5017511;28;20445;-66
2023/06/21 03:34:53;;;;;;;14.73;12.73;;;23.10;99.70;;;;;;5035587;28;20112;-66
2023/06/21 03:37:19;;;;;;;16.65;13.98;;;23.10;99.70;;;;;;5035451;28;20025;-65
2023/06/21 03:39:45;;;;;;;15.07;12.55;;;23.10;99.80;;;;;;5035226;28;20021;-67
2023/06/21 03:42:12;;;;;;;15.63;13.57;;;23.00;99.80;;;;;;5035349;28;20037;-66
2023/06/21 03:44:38;;;;;;;15.40;13.88;;;23.00;99.70;;;;;;5017644;28;20025;-67
2023/06/21 03:47:04;;;;;;;16.85;13.60;;;23.00;99.80;;;;;;5033981;28;20068;-65
2023/06/21 03:49:30;;;;;;;17.13;13.80;;;23.00;99.90;;;;;;5025069;28;20020;-66
2023/06/21 03:51:55;;;;;;;14.60;13.10;;;23.00;99.90;;;;;;5035183;28;20033;-66
2023/06/21 03:54:22;;;;;;;14.93;13.60;;;23.00;99.90;;;;;;5034431;28;20028;-66
2023/06/21 03:56:47;;;;;;;14.48;13.07;;;23.00;99.90;;;;;;5034768;28;20482;-67
2023/06/21 03:59:14;;;;;;;15.68;13.00;;;23.00;99.90;;;;;;5035146;28;20060;-66
2023/06/21 04:01:39;;;;;;;15.23;12.73;;;23.00;99.90;;;;;;5035270;28;20489;-66
2023/06/21 04:04:05;;;;;;;13.85;12.38;;;23.00;99.90;;;;;;5034853;28;20048;-65
2023/06/21 04:06:30;;;;;;;13.80;12.48;;;22.90;99.90;;;;;;5034992;28;20084;-66
2023/06/21 04:08:57;;;;;;;14.80;11.65;;;23.00;99.90;;;;;;5034732;28;20455;-66
2023/06/21 04:11:22;;;;;;;13.18;11.45;;;22.90;99.90;;;;;;5034647;28;20033;-66
2023/06/21 04:13:48;;;;;;;13.25;11.80;;;22.90;99.90;;;;;;5034755;28;20033;-64
2023/06/21 04:16:14;;;;;;;13.50;11.02;;;22.90;99.90;;;;;;5034964;28;20022;-64
2023/06/21 04:18:39;;;;;;;13.60;11.48;;;22.90;99.90;;;;;;5034919;28;20040;-65
2023/06/21 04:21:05;;;;;;;12.35;10.93;;;22.90;99.90;;;;;;5017016;28;20025;-64
2023/06/21 04:23:30;;;;;;;12.52;10.80;;;22.90;99.90;;;;;;5034597;28;20025;-67
2023/06/21 04:25:56;;;;;;;13.38;12.05;;;22.90;99.80;;;;;;5016326;28;20497;-72
2023/06/21 04:28:25;;;;;;;12.88;11.65;;;22.90;99.90;;;;;;5034670;28;20029;-64
2023/06/21 04:30:51;;;;;;;13.20;11.85;;;22.90;99.90;;;;;;5016608;28;20115;-65
2023/06/21 04:33:17;;;;;;;12.23;10.88;;;22.90;99.80;;;;;;5034639;28;20025;-65
2023/06/21 04:35:42;;;;;;;12.13;10.85;;;22.90;99.80;;;;;;5034324;28;20482;-74
2023/06/21 04:38:08;;;;;;;11.38;10.18;;;22.90;99.80;;;;;;5034371;28;20026;-65
2023/06/21 04:40:34;;;;;;;12.30;10.73;;;22.90;99.70;;;;;;5034305;28;20029;-67
2023/06/21 04:43:03;;;;;;;10.68;9.32;;;22.80;99.60;;;;;;5033458;28;20088;-65
2023/06/21 04:45:30;;;;;;;11.20;9.18;;;22.90;99.50;;;;;;5034211;28;20422;-65
2023/06/21 04:47:57;;;;;;;12.15;9.82;;;22.80;99.30;;;;;;5034096;28;20033;-65
2023/06/21 04:50:23;;;;;;;9.43;8.30;;;22.80;99.20;;;;;;5033905;28;20096;-65
2023/06/21 04:52:50;;;;;;;9.60;7.65;;;22.80;99.10;;;;;;5034194;28;20026;-65
2023/06/21 04:55:19;;;;;;;8.60;7.70;;;22.80;98.90;;;;;;5033870;28;20033;-65
2023/06/21 04:57:46;;;;;;;8.30;7.47;;;22.80;98.70;;;;;;5034109;28;20029;-68
2023/06/21 05:00:14;;;;;;;7.75;6.85;;;22.80;98.70;;;;;;5033589;28;20104;-65
2023/06/21 05:02:39;;;;;;;7.72;6.75;;;22.80;98.50;;;;;;5033867;28;20478;-65
2023/06/21 05:05:05;;;;;;;7.43;6.65;;;22.80;98.20;;;;;;5033690;28;20057;-65
2023/06/21 05:07:31;;;;;;;9.10;6.43;;;22.80;98.10;;;;;;5033579;28;20108;-65
2023/06/21 05:09:56;;;;;;;7.43;6.63;;;22.80;98.00;;;;;;5033306;28;20071;-66
2023/06/21 05:12:23;;;;;;;9.57;6.68;;;22.80;97.90;;;;;;5033427;28;20402;-65
2023/06/21 05:14:48;;;;;;;8.10;5.88;;;22.80;97.90;;;;;;5033833;28;20105;-65
2023/06/21 05:17:15;;;;;;;7.57;5.60;;;22.70;97.90;;;;;;5033555;28;20490;-66
2023/06/21 05:19:42;;;;;;;8.57;5.75;;;22.70;98.00;;;;;;5033605;28;20092;-67
2023/06/21 05:22:08;;;;;;;7.15;5.60;;;22.70;97.90;;;;;;5030640;28;20100;-66
2023/06/21 05:24:33;;;;;;;7.60;6.00;;;22.70;97.90;;;;;;5025870;28;20108;-65
2023/06/21 05:26:59;;;;;;;7.85;5.55;;;22.70;98.10;;;;;;5031131;28;20037;-65
2023/06/21 05:29:25;;;;;;;8.73;5.38;;;22.70;98.00;;;;;;5029344;28;20018;-65
2023/06/21 05:31:51;;;;;;;8.20;5.40;;;22.70;98.00;;;;;;5026559;28;20029;-65
2023/06/21 05:34:16;;;;;;;9.00;4.70;;;22.70;98.00;;;;;;5031144;28;20029;-65
2023/06/21 05:36:42;;;;;;;5.22;4.72;;;22.70;98.00;;;;;;5031841;28;20029;-65
2023/06/21 05:39:08;;;;;;;5.63;4.55;;;22.80;98.30;;;;;;5031283;28;20037;-66
2023/06/21 05:41:33;;;;;;;6.35;4.35;;;22.80;98.40;;;;;;5027776;28;20030;-66
2023/06/21 05:43:59;;;;;;;6.82;4.90;;;22.90;98.40;;;;;;5030771;28;20378;-66
2023/06/21 05:46:24;;;;;;;6.90;4.20;;;22.90;98.60;;;;;;5025499;28;20433;-68
2023/06/21 05:48:50;;;;;;;7.00;3.53;;;23.00;98.70;;;;;;5029180;28;20499;-70
2023/06/21 05:51:15;;;;;;;6.25;3.75;;;23.00;98.50;;;;;;5030717;28;20475;-69
2023/06/21 05:53:41;;;;;;;6.57;3.92;;;23.00;98.20;;;;;;5031237;28;20022;-67
2023/06/21 05:56:06;;;;;;;6.40;3.40;;;23.10;98.10;;;;;;5031842;28;20104;-68
2023/06/21 05:58:32;;;;;;;6.90;3.40;;;23.20;97.90;;;;;;5031032;28;20104;-66
2023/06/21 06:00:57;;;;;;;4.32;2.97;;;23.20;97.70;;;;;;5032291;28;20025;-69
2023/06/21 06:03:24;;;;;;;4.57;2.53;;;23.20;97.40;;;;;;5029816;28;20022;-69
2023/06/21 06:05:50;;;;;;;4.93;2.95;;;23.30;97.30;;;;;;5031554;28;20466;-65
2023/06/21 06:08:16;;;;;;;3.70;2.60;;;23.30;97.20;;;;;;5031975;28;20136;-67
2023/06/21 06:10:42;;;;;;;5.97;2.83;;;23.40;97.20;;;;;;5011389;28;20437;-67
2023/06/21 06:13:07;;;;;;;5.90;2.70;;;23.40;97.00;;;;;;5028090;28;20029;-70
2023/06/21 06:15:33;;;;;;;7.55;2.80;;;23.50;96.80;;;;;;5028436;28;20030;-66
2023/06/21 06:17:58;;;;;;;9.77;2.55;;;23.50;96.60;;;;;;5030830;28;20022;-66
2023/06/21 06:20:26;;;;;;;3.38;2.40;;;23.60;96.40;;;;;;5028075;28;20025;-65
2023/06/21 06:22:52;;;;;;;6.03;2.53;;;23.70;96.40;;;;;;5029511;28;20104;-67
2023/06/21 06:25:17;;;;;;;2.83;2.53;;;23.70;96.40;;;;;;5026400;28;20105;-68
2023/06/21 06:27:43;;;;;;;2.50;1.67;;;23.80;96.30;;;;;;5030778;28;20042;-68
2023/06/21 06:30:09;;;;;;;3.85;2.20;;;23.80;96.10;;;;;;5032945;28;20481;-68
2023/06/21 06:32:35;;;;;;;2.60;2.10;;;23.90;96.00;;;;;;5029618;28;20037;-67
2023/06/21 06:35:01;;;;;;;3.60;1.83;;;23.90;95.70;;;;;;5029598;28;20532;-69
2023/06/21 06:37:26;;;;;;;4.22;2.08;;;24.00;95.60;;;;;;5030034;28;20033;-69
2023/06/21 06:39:54;;;;;;;7.65;2.63;;;24.00;95.40;;;;;;5029756;28;20478;-67
2023/06/21 06:42:20;;;;;;;4.75;2.72;;;24.10;95.50;;;;;;5030357;28;20040;-68
2023/06/21 06:44:46;;;;;;;5.50;2.75;;;24.10;95.40;;;;;;5030479;28;20092;-68
2023/06/21 06:47:12;;;;;;;6.22;2.10;;;24.20;95.40;;;;;;5028836;28;20041;-68
2023/06/21 06:49:38;;;;;;;4.00;1.88;;;24.20;95.20;;;;;;5030755;28;20044;-68
2023/06/21 06:52:05;;;;;;;4.53;2.28;;;24.30;95.00;;;;;;5029952;28;20517;-68
2023/06/21 06:54:30;;;;;;;5.55;2.10;;;24.30;95.10;;;;;;5029814;28;20114;-69
2023/06/21 06:56:56;;;;;;;4.07;2.05;;;24.30;94.90;;;;;;5029646;28;20106;-66
2023/06/21 06:59:23;;;;;;;5.93;1.80;;;24.40;94.70;;;;;;5031532;28;20032;-66
2023/06/21 07:01:48;;;;;;;3.85;2.25;;;24.40;94.90;;;;;;5030524;28;20033;-66
2023/06/21 07:04:14;;;;;;;3.63;2.30;;;24.50;94.60;;;;;;5025169;28;20382;-69
2023/06/21 07:06:41;;;;;;;5.78;2.13;;;24.60;95.10;;;;;;5033176;28;20033;-69
2023/06/21 07:09:08;;;;;;;4.28;1.85;;;24.60;94.90;;;;;;5033015;28;20025;-69
2023/06/21 07:11:34;;;;;;;3.92;2.30;;;24.70;94.70;;;;;;5033214;28;20171;-68
2023/06/21 07:14:00;;;;;;;5.80;2.08;;;24.80;94.80;;;;;;5030123;28;20028;-68
2023/06/21 07:16:33;;;;;;;3.08;1.70;;;24.80;94.40;;;;;;5030569;28;20026;-68
2023/06/21 07:18:59;;;;;;;4.18;1.73;;;24.90;94.00;;;;;;5035243;28;20025;-68
2023/06/21 07:21:27;;;;;;;2.38;1.90;;;24.90;94.00;;;;;;5028141;28;20025;-68
2023/06/21 07:23:52;;;;;;;4.38;1.85;;;24.90;93.70;;;;;;5034444;28;20022;-68
2023/06/21 07:26:18;;;;;;;2.90;1.90;;;25.00;93.60;;;;;;5032269;28;20025;-67
2023/06/21 07:28:44;;;;;;;3.60;1.55;;;25.00;93.40;;;;;;5034970;28;20104;-68
2023/06/21 07:31:09;;;;;;;3.35;1.70;;;25.10;93.40;;;;;;5035359;28;20059;-68
2023/06/21 07:33:36;;;;;;;3.50;1.50;;;25.10;93.20;;;;;;5035142;28;20068;-68
2023/06/21 07:36:01;;;;;;;3.88;1.73;;;25.10;93.20;;;;;;5035295;28;20025;-68
2023/06/21 07:38:27;;;;;;;2.10;1.50;;;25.20;93.30;;;;;;5033851;28;20447;-68
2023/06/21 07:40:52;;;;;;;2.33;1.67;;;25.30;93.10;;;;;;5033859;28;20025;-68
2023/06/21 07:43:18;;;;;;;2.88;1.42;;;25.30;92.90;;;;;;5033604;28;20487;-68
2023/06/21 07:45:43;;;;;;;1.70;1.17;;;25.30;92.80;;;;;;5027956;28;20381;-68
2023/06/21 07:48:09;;;;;;;5.25;1.42;;;25.40;92.90;;;;;;5030233;28;20398;-70
2023/06/21 07:50:34;;;;;;;3.47;1.50;;;25.40;92.90;;;;;;5010361;28;20478;-69
2023/06/21 07:53:00;;;;;;;4.65;1.60;;;25.50;92.60;;;;;;5031206;28;20040;-69
2023/06/21 07:55:26;;;;;;;1.42;1.10;;;25.50;92.60;;;;;;5033397;28;20029;-69
2023/06/21 07:57:51;;;;;;;3.92;0.95;;;25.60;92.50;;;;;;5029838;28;20490;-69
2023/06/21 08:00:17;;;;;;;5.47;1.30;;;25.60;92.40;;;;;;5032188;28;20482;-69
2023/06/21 08:02:49;;;;;;;3.08;1.30;;;25.70;92.40;;;;;;5030896;28;20108;-69
2023/06/21 08:05:16;;;;;;;3.92;1.40;;;25.80;92.20;;;;;;5029024;28;20032;-69
2023/06/21 08:07:42;;;;;;;3.05;1.42;;;25.90;91.80;;;;;;5034114;28;20067;-69
2023/06/21 08:10:08;;;;;;;2.03;1.25;;;26.00;91.80;;;;;;5033949;28;20029;-70
2023/06/21 08:12:34;;;;;;;2.00;1.05;;;26.00;91.70;;;;;;5034109;28;20033;-69
2023/06/21 08:15:00;;;;;;;2.00;1.23;;;26.10;91.40;;;;;;5032553;28;20029;-69
2023/06/21 08:17:25;;;;;;;2.10;1.63;;;26.10;91.40;;;;;;5012234;28;20025;-69
2023/06/21 08:19:51;;;;;;;2.92;1.45;;;26.20;91.30;;;;;;5030575;28;20125;-70
2023/06/21 08:22:17;;;;;;;2.15;1.30;;;26.30;91.20;;;;;;5031935;28;20022;-68
2023/06/21 08:24:42;;;;;;;2.47;1.50;;;26.30;90.90;;;;;;5019019;28;20030;-69
2023/06/21 08:27:08;;;;;;;2.15;1.50;;;26.30;90.70;;;;;;5032991;28;20033;-71
2023/06/21 08:29:34;;;;;;;3.78;1.88;;;26.40;90.80;;;;;;5029475;28;20026;-69
2023/06/21 08:31:59;;;;;;;2.55;1.30;;;26.40;90.80;;;;;;5031598;28;20029;-69
2023/06/21 08:34:25;;;;;;;4.13;1.90;;;26.50;90.80;;;;;;5026023;28;20033;-69
2023/06/21 08:36:50;;;;;;;2.22;1.13;;;26.50;90.70;;;;;;5031164;28;20475;-70
2023/06/21 08:39:16;;;;;;;2.03;1.50;;;26.60;90.50;;;;;;5029568;28;20548;-68
2023/06/21 08:41:43;;;;;;;3.60;1.05;;;26.60;90.60;;;;;;5024546;28;20030;-68
2023/06/21 08:44:08;;;;;;;1.75;1.10;;;26.60;90.50;;;;;;5016636;28;20110;-69
2023/06/21 08:46:35;;;;;;;2.35;1.10;;;26.60;90.50;;;;;;5032015;28;21095;-69
2023/06/21 08:49:05;;;;;;;1.67;1.10;;;26.60;90.60;;;;;;5030540;28;20045;-69
2023/06/21 08:51:35;;;;;;;3.63;1.17;;;26.60;90.50;;;;;;5029962;28;20056;-69
2023/06/21 08:54:04;;;;;;;2.05;0.85;;;26.60;90.30;;;;;;5011843;28;20430;-68
2023/06/21 08:57:11;;;;;;;3.60;1.25;;;26.70;90.40;;;;;;5030029;28;20028;-69
2023/06/21 09:00:07;;;;;;;2.30;1.00;;;26.60;90.40;;;;;;4931090;29;20083;-69
2023/06/21 09:02:57;;;;;;;1.33;1.00;;;26.70;90.10;;;;;;4904353;29;20031;-68
2023/06/21 09:05:38;;;;;;;1.95;0.90;;;26.80;89.80;;;;;;5012396;28;20037;-70
2023/06/21 09:08:05;;;;;;;1.58;1.10;;;26.80;89.50;;;;;;5028052;28;20128;-67
2023/06/21 09:10:33;;;;;;;3.17;1.02;;;26.80;89.70;;;;;;5029924;28;20547;-67
2023/06/21 09:12:59;;;;;;;3.15;1.30;;;26.90;90.00;;;;;;5029874;28;20475;-67
2023/06/21 09:15:26;;;;;;;3.90;1.33;;;26.90;89.90;;;;;;5028718;28;20032;-67
2023/06/21 09:17:54;;;;;;;3.30;1.00;;;26.90;88.90;;;;;;5010638;28;20025;-69
2023/06/21 09:20:22;;;;;;;2.72;1.10;;;27.00;89.30;;;;;;5018114;28;20436;-69
2023/06/21 09:22:48;;;;;;;2.75;1.15;;;27.00;89.20;;;;;;5031891;28;20017;-67
2023/06/21 09:25:14;;;;;;;3.72;1.30;;;27.00;88.60;;;;;;5031424;28;20025;-68
2023/06/21 09:27:39;;;;;;;2.80;0.88;;;27.00;88.30;;;;;;5028797;28;20329;-69
2023/06/21 09:30:06;;;;;;;1.20;0.90;;;27.00;88.50;;;;;;5027084;28;20529;-69
2023/06/21 09:32:31;;;;;;;3.55;1.00;;;27.10;88.70;;;;;;5023152;28;20033;-68
2023/06/21 09:34:58;;;;;;;2.58;1.23;;;27.10;88.40;;;;;;5029290;28;20036;-68
2023/06/21 09:37:34;;;;;;;2.28;1.25;;;27.10;88.10;;;;;;5030527;28;20033;-70
2023/06/21 09:39:59;;;;;;;4.35;0.98;;;27.10;88.20;;;;;;5031770;28;20481;-69
2023/06/21 09:42:26;;;;;;;1.50;0.90;;;27.20;88.30;;;;;;5025603;28;20101;-68
2023/06/21 09:44:52;;;;;;;1.40;0.90;;;27.20;88.30;;;;;;5030745;28;20470;-68
2023/06/21 09:47:18;;;;;;;1.20;0.82;;;27.20;88.20;;;;;;5030576;28;20096;-68
2023/06/21 09:49:47;;;;;;;2.58;0.95;;;27.20;88.20;;;;;;5031828;28;20527;-69
2023/06/21 09:52:14;;;;;;;2.25;1.25;;;27.20;87.70;;;;;;5030221;28;20029;-68
2023/06/21 09:54:43;;;;;;;2.80;1.30;;;27.20;87.10;;;;;;5025749;28;20036;-68
2023/06/21 09:57:09;;;;;;;3.10;0.95;;;27.30;86.10;;;;;;5006089;28;20018;-68
2023/06/21 09:59:39;;;;;;;1.20;0.68;;;27.30;87.40;;;;;;5031974;28;20030;-67
2023/06/21 10:02:06;;;;;;;2.65;0.90;;;27.30;87.70;;;;;;5024041;28;20522;-69
2023/06/21 10:04:40;;;;;;;3.45;1.35;;;27.30;87.50;;;;;;5026607;28;20147;-69
2023/06/21 10:07:06;;;;;;;2.45;0.80;;;27.30;87.50;;;;;;5029899;28;20111;-68
2023/06/21 10:09:36;;;;;;;4.13;1.08;;;27.30;87.50;;;;;;5021458;28;20026;-68
2023/06/21 10:12:06;;;;;;;4.55;1.10;;;27.30;87.50;;;;;;5027055;28;20072;-68
2023/06/21 10:14:32;;;;;;;1.35;0.65;;;27.30;87.40;;;;;;5010739;28;20120;-67
2023/06/21 10:16:58;;;;;;;1.70;1.02;;;27.30;87.60;;;;;;5029619;28;20025;-70
2023/06/21 10:19:26;;;;;;;1.67;0.95;;;27.30;88.10;;;;;;5025087;28;20041;-71
2023/06/21 10:22:04;;;;;;;2.45;1.00;;;27.30;88.20;;;;;;5028580;28;20105;-68
2023/06/21 10:24:39;;;;;;;4.05;1.42;;;27.30;89.70;;;;;;5022772;28;20162;-69
2023/06/21 10:27:09;;;;;;;4.15;1.20;;;27.40;90.00;;;;;;5019698;28;20037;-69
2023/06/21 10:29:37;;;;;;;5.60;1.23;;;27.40;90.00;;;;;;5026077;28;20560;-68
2023/06/21 10:32:05;;;;;;;7.80;2.08;;;27.40;89.60;;;;;;5028509;28;20053;-70
2023/06/21 10:34:55;;;;;;;7.40;1.63;;;27.40;90.10;;;;;;5029505;28;20130;-69
2023/06/21 10:37:56;;;;;;;7.43;1.60;;;27.40;89.70;;;;;;5013389;28;20567;-70
2023/06/21 10:40:22;;;;;;;9.20;1.67;;;27.40;89.50;;;;;;4988650;28;20084;-69
2023/06/21 10:42:49;;;;;;;2.05;1.33;;;27.50;89.40;;;;;;5013041;28;20049;-68
2023/06/21 10:45:16;;;;;;;7.57;1.70;;;27.50;86.90;;;;;;5032483;28;20017;-68
2023/06/21 10:47:42;;;;;;;3.50;1.30;;;27.50;87.00;;;;;;5028501;28;20042;-70
2023/06/21 10:50:09;;;;;;;5.82;1.40;;;27.40;86.80;;;;;;5034794;28;20029;-70
2023/06/21 10:52:35;;;;;;;3.20;1.63;;;27.40;86.50;;;;;;5032344;28;20090;-69
2023/06/21 10:55:03;;;;;;;4.90;1.30;;;27.40;86.20;;;;;;5023383;28;20034;-70
2023/06/21 10:57:30;;;;;;;3.40;1.10;;;27.50;85.90;;;;;;5020794;28;20033;-68
2023/06/21 11:00:02;;;;;;;6.55;2.00;;;27.50;85.70;;;;;;5023577;28;20040;-67
2023/06/21 11:02:28;;;;;;;2.65;1.02;;;27.40;85.60;;;;;;5030132;28;20025;-68
2023/06/21 11:05:15;;;;;;;3.45;1.40;;;27.40;85.70;;;;;;5033291;28;20604;-68
2023/06/21 11:08:00;;;;;;;4.80;1.40;;;27.40;85.20;;;;;;5026094;28;20041;-67
2023/06/21 11:10:49;;;;;;;5.38;1.38;;;27.40;85.30;;;;;;5025983;28;20029;-67
2023/06/21 11:13:17;;;;;;;4.35;1.73;;;27.50;85.60;;;;;;5028032;28;20033;-67
2023/06/21 11:15:45;;;;;;;5.38;2.03;;;27.50;84.80;;;;;;5026542;28;20037;-67
2023/06/21 11:18:19;;;;;;;2.20;1.70;;;27.50;84.70;;;;;;5028975;28;20386;-71
2023/06/21 11:20:49;;;;;;;3.28;1.73;;;27.50;83.90;;;;;;5031867;28;20463;-68
2023/06/21 11:23:19;;;;;;;6.03;1.30;;;27.50;84.00;;;;;;5029089;28;20021;-68
2023/06/21 11:25:51;;;;;;;5.30;1.05;;;27.50;84.60;;;;;;5034148;28;20026;-71
2023/06/21 11:28:19;;;;;;;6.22;1.10;;;27.50;85.20;;;;;;5031982;28;20037;-70
2023/06/21 11:31:03;;;;;;;3.15;1.15;;;27.50;85.10;;;;;;5033691;28;20573;-67
2023/06/21 11:33:30;;;;;;;3.38;1.30;;;27.50;84.90;;;;;;5030366;28;20440;-69
2023/06/21 11:36:06;;;;;;;3.25;1.10;;;27.50;85.60;;;;;;5025679;28;20507;-68
2023/06/21 11:38:34;;;;;;;1.52;1.00;;;27.50;85.10;;;;;;5030496;28;20060;-67
2023/06/21 11:41:01;;;;;;;9.00;1.20;;;27.60;82.60;;;;;;5025431;28;20049;-73
2023/06/21 11:43:26;;;;;;;9.13;2.05;;;27.50;84.00;;;;;;5013084;28;20037;-69
2023/06/21 11:46:01;;;;;;;5.22;1.23;;;27.20;86.20;;;;;;5025483;28;20378;-68
2023/06/21 11:48:30;;;;;;;5.15;1.05;;;27.30;84.70;;;;;;5016397;28;20038;-68
2023/06/21 11:51:07;;;;;;;2.15;0.90;;;27.30;83.00;;;;;;5027556;28;20022;-69
2023/06/21 11:53:43;;;;;;;3.45;1.08;;;27.40;83.30;;;;;;5019906;28;20040;-67
2023/06/21 11:56:17;;;;;;;3.13;1.05;;;27.40;83.30;;;;;;5032349;28;20386;-67
2023/06/21 11:58:42;;;;;;;3.53;1.52;;;27.40;81.60;;;;;;5021284;28;20025;-67
2023/06/21 12:01:09;;;;;;;2.40;1.02;;;27.40;82.00;;;;;;5033203;28;20033;-67
2023/06/21 12:03:35;;;;;;;1.30;0.98;;;27.50;81.30;;;;;;5032996;28;20033;-69
2023/06/21 12:06:02;;;;;;;9.73;1.52;;;27.50;81.20;;;;;;5020142;28;20141;-68
2023/06/21 12:08:36;;;;;;;2.95;1.20;;;27.50;83.80;;;;;;5030560;28;20099;-67
2023/06/21 12:11:09;;;;;;;6.20;0.95;;;27.50;83.70;;;;;;5025661;28;20041;-68
2023/06/21 12:13:36;;;;;;;2.38;1.08;;;27.50;83.40;;;;;;5034079;28;20034;-68
2023/06/21 12:16:04;;;;;;;2.30;1.17;;;27.50;83.60;;;;;;5030039;28;20045;-68
2023/06/21 12:18:31;;;;;;;2.17;1.20;;;27.50;83.10;;;;;;5030527;28;20053;-68
2023/06/21 12:21:02;;;;;;;6.57;1.40;;;27.50;83.40;;;;;;5014411;28;20049;-68
2023/06/21 12:23:28;;;;;;;2.78;1.45;;;27.50;83.70;;;;;;5013815;28;20021;-68
2023/06/21 12:25:56;;;;;;;2.22;0.90;;;27.50;83.20;;;;;;5028310;28;20095;-68
2023/06/21 12:28:23;;;;;;;3.80;1.42;;;27.50;83.30;;;;;;5030956;28;20046;-68
2023/06/21 12:31:05;;;;;;;3.63;1.20;;;27.50;82.20;;;;;;5022958;28;20506;-68
2023/06/21 12:33:36;;;;;;;1.25;0.88;;;27.50;80.20;;;;;;5032816;28;20029;-68
2023/06/21 12:36:24;;;;;;;5.35;1.83;;;27.60;82.40;;;;;;5031680;28;20029;-69
2023/06/21 12:38:51;;;;;;;3.15;1.02;;;27.60;81.50;;;;;;5028233;28;20021;-69
2023/06/21 12:41:19;;;;;;;1.40;0.60;;;27.50;81.90;;;;;;5030179;28;20025;-69
2023/06/21 12:43:47;;;;;;;5.38;1.15;;;27.50;81.40;;;;;;5029678;28;20033;-68